createdAt,value
2018-09-24T00:02:10.879Z,7.77
2018-09-24T00:04:39.540Z,7.78
2018-09-24T00:07:08.213Z,7.72
2018-09-24T00:09:36.906Z,7.69
2018-09-24T00:12:05.596Z,7.68
2018-09-24T00:14:34.253Z,7.69
2018-09-24T00:17:02.933Z,7.71
2018-09-24T00:19:31.649Z,7.68
2018-09-24T00:22:00.341Z,7.70
2018-09-24T00:24:29.004Z,7.66
2018-09-24T00:26:57.689Z,7.64
2018-09-24T00:29:26.349Z,7.61
2018-09-24T00:31:55.053Z,7.65
2018-09-24T00:34:23.735Z,7.69
2018-09-24T00:36:52.417Z,7.67
2018-09-24T00:39:21.080Z,7.67
2018-09-24T00:41:49.759Z,7.66
2018-09-24T00:44:18.408Z,7.70
2018-09-24T00:46:47.100Z,7.69
2018-09-24T00:49:15.763Z,7.69
2018-09-24T00:51:44.428Z,7.67
2018-09-24T00:54:13.113Z,7.68
2018-09-24T00:56:41.797Z,7.78
2018-09-24T00:59:10.636Z,7.76
2018-09-24T01:01:42.459Z,7.74
2018-09-24T01:04:11.116Z,7.71
2018-09-24T01:06:39.789Z,7.67
2018-09-24T01:09:10.202Z,7.64
2018-09-24T01:11:38.973Z,7.69
2018-09-24T01:14:07.645Z,7.65
2018-09-24T01:16:36.332Z,7.66
2018-09-24T01:19:05.069Z,7.65
2018-09-24T01:21:33.793Z,7.66
2018-09-24T01:24:03.547Z,7.65
2018-09-24T01:26:32.217Z,7.59
2018-09-24T01:29:00.970Z,7.58
2018-09-24T01:31:29.669Z,7.59
2018-09-24T01:33:58.481Z,7.56
2018-09-24T01:36:27.148Z,7.60
2018-09-24T01:38:55.810Z,7.55
2018-09-24T01:41:24.505Z,7.51
2018-09-24T01:43:53.178Z,7.46
2018-09-24T01:46:21.866Z,7.43
2018-09-24T01:48:50.525Z,7.39
2018-09-24T01:51:19.182Z,7.42
2018-09-24T01:53:47.869Z,7.39
2018-09-24T01:56:16.542Z,7.31
2018-09-24T01:58:45.214Z,7.28
2018-09-24T02:01:13.870Z,7.23
2018-09-24T02:03:42.545Z,7.19
2018-09-24T02:06:11.197Z,7.16
2018-09-24T02:08:42.372Z,7.18
2018-09-24T02:11:11.121Z,7.19
2018-09-24T02:13:47.044Z,7.20
2018-09-24T02:16:15.792Z,7.21
2018-09-24T02:18:44.668Z,7.18
2018-09-24T02:21:13.370Z,7.15
2018-09-24T02:23:42.055Z,7.10
2018-09-24T02:26:11.107Z,7.18
2018-09-24T02:28:39.858Z,7.18
2018-09-24T02:31:08.784Z,7.18
2018-09-24T02:33:37.523Z,7.17
2018-09-24T02:36:06.199Z,7.16
2018-09-24T02:38:40.992Z,7.16
2018-09-24T02:41:09.885Z,7.09
2018-09-24T02:43:38.563Z,7.08
2018-09-24T02:46:07.221Z,7.06
2018-09-24T02:48:35.913Z,7.09
2018-09-24T02:51:04.570Z,7.11
2018-09-24T02:53:40.489Z,7.07
2018-09-24T02:56:09.683Z,7.04
2018-09-24T02:58:38.391Z,7.11
2018-09-24T03:01:07.188Z,7.11
2018-09-24T03:03:35.872Z,7.13
2018-09-24T03:06:04.546Z,7.13
2018-09-24T03:08:33.284Z,7.12
2018-09-24T03:11:05.459Z,7.11
2018-09-24T03:13:34.151Z,7.16
2018-09-24T03:16:02.817Z,7.15
2018-09-24T03:18:31.509Z,7.17
2018-09-24T03:21:00.156Z,7.18
2018-09-24T03:23:28.834Z,7.16
2018-09-24T03:25:57.489Z,7.09
2018-09-24T03:28:26.161Z,7.07
2018-09-24T03:30:54.818Z,7.09
2018-09-24T03:33:23.531Z,7.04
2018-09-24T03:35:52.182Z,7.03
2018-09-24T03:38:20.866Z,7.01
2018-09-24T03:40:49.518Z,6.99
2018-09-24T03:43:18.185Z,6.97
2018-09-24T03:45:46.870Z,6.95
2018-09-24T03:48:15.561Z,6.91
2018-09-24T03:50:44.284Z,6.86
2018-09-24T03:53:12.958Z,6.81
2018-09-24T03:55:41.609Z,6.80
2018-09-24T03:58:10.281Z,6.79
2018-09-24T04:00:38.938Z,6.84
2018-09-24T04:03:07.640Z,6.87
2018-09-24T04:05:41.402Z,6.87
2018-09-24T04:08:15.247Z,6.86
2018-09-24T04:10:49.104Z,6.78
2018-09-24T04:13:23.160Z,6.77
2018-09-24T04:15:56.971Z,6.79
2018-09-24T04:18:30.840Z,6.78
2018-09-24T04:21:04.602Z,6.79
2018-09-24T04:23:38.479Z,6.79
2018-09-24T04:26:12.373Z,6.82
2018-09-24T04:28:46.309Z,6.80
2018-09-24T04:31:20.229Z,6.83
2018-09-24T04:33:54.216Z,6.81
2018-09-24T04:36:28.042Z,6.80
2018-09-24T04:39:01.994Z,6.83
2018-09-24T04:41:35.792Z,6.81
2018-09-24T04:44:09.740Z,6.81
2018-09-24T04:46:43.646Z,6.78
2018-09-24T04:49:17.658Z,6.75
2018-09-24T04:51:51.543Z,6.72
2018-09-24T04:54:25.420Z,6.68
2018-09-24T04:56:59.281Z,6.67
2018-09-24T04:59:33.171Z,6.65
2018-09-24T05:02:06.988Z,6.71
2018-09-24T05:04:40.785Z,6.70
2018-09-24T05:07:14.695Z,6.65
2018-09-24T05:09:48.664Z,6.65
2018-09-24T05:12:22.469Z,6.65
2018-09-24T05:14:56.448Z,6.63
2018-09-24T05:17:30.269Z,6.63
2018-09-24T05:20:04.101Z,6.61
2018-09-24T05:22:38.074Z,6.65
2018-09-24T05:25:11.971Z,6.60
2018-09-24T05:27:45.758Z,6.65
2018-09-24T05:30:19.607Z,6.70
2018-09-24T05:32:53.572Z,6.77
2018-09-24T05:35:27.455Z,6.87
2018-09-24T05:38:01.462Z,7.08
2018-09-24T05:40:35.344Z,7.41
2018-09-24T05:43:09.338Z,7.89
2018-09-24T05:45:43.227Z,8.20
2018-09-24T05:48:16.909Z,8.51
2018-09-24T05:50:50.693Z,8.76
2018-09-24T05:53:24.653Z,8.86
2018-09-24T05:55:58.697Z,8.66
2018-09-24T05:58:32.542Z,8.60
2018-09-24T06:01:06.465Z,8.63
2018-09-24T06:03:40.343Z,8.93
2018-09-24T06:06:14.171Z,8.87
2018-09-24T06:08:47.988Z,8.53
2018-09-24T06:11:21.876Z,8.28
2018-09-24T06:13:55.682Z,8.15
2018-09-24T06:16:29.619Z,8.08
2018-09-24T06:19:03.534Z,8.16
2018-09-24T06:21:37.621Z,8.29
2018-09-24T06:24:11.801Z,8.43
2018-09-24T06:26:45.632Z,8.51
2018-09-24T06:29:19.715Z,8.47
2018-09-24T06:31:53.701Z,8.47
2018-09-24T06:34:27.624Z,8.53
2018-09-24T06:37:01.682Z,8.60
2018-09-24T06:39:35.371Z,8.71
2018-09-24T06:42:09.356Z,8.78
2018-09-24T06:44:43.080Z,8.87
2018-09-24T06:47:16.936Z,9.00
2018-09-24T06:49:50.860Z,9.11
2018-09-24T06:52:24.797Z,9.24
2018-09-24T06:54:58.658Z,9.34
2018-09-24T06:57:32.634Z,9.37
2018-09-24T07:00:06.447Z,9.41
2018-09-24T07:02:40.293Z,9.53
2018-09-24T07:05:14.011Z,9.66
2018-09-24T07:07:47.880Z,9.82
2018-09-24T07:10:21.869Z,9.90
2018-09-24T07:12:55.640Z,9.92
2018-09-24T07:15:29.455Z,9.83
2018-09-24T07:18:03.396Z,9.71
2018-09-24T07:20:37.277Z,9.69
2018-09-24T07:23:11.132Z,9.54
2018-09-24T07:25:44.834Z,9.53
2018-09-24T07:28:18.693Z,9.69
2018-09-24T07:30:52.598Z,9.88
2018-09-24T07:33:26.531Z,10.01
2018-09-24T07:36:00.485Z,9.92
2018-09-24T07:38:34.489Z,9.96
2018-09-24T07:41:08.291Z,10.14
2018-09-24T07:43:42.254Z,10.19
2018-09-24T07:46:16.072Z,9.98
2018-09-24T07:48:49.924Z,9.93
2018-09-24T07:51:23.733Z,10.16
2018-09-24T07:53:57.511Z,10.45
2018-09-24T07:56:31.321Z,10.60
2018-09-24T07:59:05.317Z,10.62
2018-09-24T08:01:39.221Z,10.56
2018-09-24T08:04:13.142Z,10.71
2018-09-24T08:06:47.040Z,10.81
2018-09-24T08:09:20.917Z,10.79
2018-09-24T08:11:54.792Z,10.80
2018-09-24T08:14:28.804Z,10.86
2018-09-24T08:17:02.841Z,11.07
2018-09-24T08:19:36.779Z,10.97
2018-09-24T08:22:10.546Z,11.08
2018-09-24T08:24:44.513Z,11.09
2018-09-24T08:27:18.484Z,11.14
2018-09-24T08:29:52.350Z,11.22
2018-09-24T08:32:26.188Z,11.25
2018-09-24T08:35:00.068Z,11.25
2018-09-24T08:37:33.905Z,11.38
2018-09-24T08:40:07.816Z,11.48
2018-09-24T08:42:41.710Z,11.47
2018-09-24T08:45:15.548Z,11.52
2018-09-24T08:47:49.474Z,11.55
2018-09-24T08:50:23.460Z,11.67
2018-09-24T08:52:57.253Z,11.77
2018-09-24T08:55:31.123Z,11.84
2018-09-24T08:58:05.072Z,11.97
2018-09-24T09:00:39.139Z,11.92
2018-09-24T09:03:12.932Z,12.18
2018-09-24T09:05:46.812Z,12.28
2018-09-24T09:08:20.716Z,12.21
2018-09-24T09:10:54.531Z,12.08
2018-09-24T09:13:28.364Z,12.17
2018-09-24T09:16:02.241Z,12.36
2018-09-24T09:18:36.114Z,12.59
2018-09-24T09:21:10.194Z,12.19
2018-09-24T09:23:44.062Z,12.25
2018-09-24T09:26:18.726Z,12.36
2018-09-24T09:28:52.751Z,12.34
2018-09-24T09:31:26.629Z,12.52
2018-09-24T09:34:00.518Z,11.96
2018-09-24T09:36:34.529Z,11.88
2018-09-24T09:39:08.350Z,12.04
2018-09-24T09:41:42.293Z,12.24
2018-09-24T09:44:16.217Z,12.23
2018-09-24T09:46:50.190Z,12.43
2018-09-24T09:49:23.921Z,12.52
2018-09-24T09:51:57.689Z,12.52
2018-09-24T09:54:31.554Z,12.59
2018-09-24T09:57:05.436Z,12.63
2018-09-24T09:59:39.244Z,12.84
2018-09-24T10:02:13.182Z,12.87
2018-09-24T10:04:46.993Z,13.09
2018-09-24T10:07:20.860Z,13.05
2018-09-24T10:09:54.779Z,12.91
2018-09-24T10:12:28.815Z,13.12
2018-09-24T10:15:02.618Z,12.84
2018-09-24T10:17:36.475Z,12.83
2018-09-24T10:20:10.584Z,13.03
2018-09-24T10:22:44.686Z,13.48
2018-09-24T10:25:18.608Z,13.59
2018-09-24T10:27:52.436Z,13.49
2018-09-24T10:30:26.324Z,13.35
2018-09-24T10:33:00.213Z,12.78
2018-09-24T10:35:34.163Z,12.90
2018-09-24T10:38:08.120Z,13.38
2018-09-24T10:40:42.126Z,13.64
2018-09-24T10:43:15.969Z,13.98
2018-09-24T10:45:49.955Z,13.48
2018-09-24T10:48:23.819Z,13.48
2018-09-24T10:50:57.694Z,13.75
2018-09-24T10:53:31.477Z,13.89
2018-09-24T10:56:05.455Z,13.69
2018-09-24T10:58:39.367Z,13.76
2018-09-24T11:01:13.187Z,13.85
2018-09-24T11:03:47.126Z,13.67
2018-09-24T11:06:20.946Z,13.77
2018-09-24T11:08:54.765Z,13.84
2018-09-24T11:11:28.490Z,13.11
2018-09-24T11:14:02.526Z,13.15
2018-09-24T11:16:36.473Z,12.96
2018-09-24T11:19:10.335Z,12.82
2018-09-24T11:21:44.166Z,12.73
2018-09-24T11:24:18.206Z,13.05
2018-09-24T11:26:52.205Z,13.58
2018-09-24T11:29:26.163Z,13.88
2018-09-24T11:31:59.880Z,13.72
2018-09-24T11:34:33.693Z,13.66
2018-09-24T11:37:07.429Z,13.70
2018-09-24T11:39:41.455Z,13.59
2018-09-24T11:42:15.292Z,14.05
2018-09-24T11:44:49.351Z,14.27
2018-09-24T11:47:23.316Z,14.24
2018-09-24T11:49:57.240Z,14.05
2018-09-24T11:52:31.387Z,13.55
2018-09-24T11:55:05.468Z,13.19
2018-09-24T11:57:39.385Z,13.63
2018-09-24T12:00:13.156Z,13.95
2018-09-24T12:02:47.132Z,14.06
2018-09-24T12:05:20.985Z,13.78
2018-09-24T12:07:54.817Z,13.80
2018-09-24T12:10:28.688Z,13.76
2018-09-24T12:13:02.558Z,13.88
2018-09-24T12:15:36.492Z,13.95
2018-09-24T12:18:10.440Z,13.72
2018-09-24T12:20:44.530Z,14.19
2018-09-24T12:23:18.580Z,14.41
2018-09-24T12:25:52.324Z,13.99
2018-09-24T12:28:26.179Z,13.95
2018-09-24T12:31:00.191Z,14.10
2018-09-24T12:33:33.917Z,13.91
2018-09-24T12:36:07.886Z,13.18
2018-09-24T12:38:41.779Z,13.15
2018-09-24T12:41:15.588Z,12.93
2018-09-24T12:43:49.597Z,13.17
2018-09-24T12:46:23.499Z,13.48
2018-09-24T12:48:57.450Z,13.12
2018-09-24T12:51:31.455Z,13.13
2018-09-24T12:54:05.314Z,13.38
2018-09-24T12:56:39.078Z,13.28
2018-09-24T12:59:12.949Z,13.33
2018-09-24T13:01:46.857Z,13.52
2018-09-24T13:04:20.764Z,13.69
2018-09-24T13:06:54.665Z,13.69
2018-09-24T13:09:28.547Z,13.45
2018-09-24T13:12:02.334Z,13.23
2018-09-24T13:14:36.200Z,13.41
2018-09-24T13:17:10.120Z,13.52
2018-09-24T13:19:43.842Z,13.17
2018-09-24T13:22:17.854Z,12.97
2018-09-24T13:24:51.645Z,13.15
2018-09-24T13:27:25.619Z,13.40
2018-09-24T13:29:59.453Z,13.16
2018-09-24T13:32:33.316Z,13.26
2018-09-24T13:35:08.176Z,13.08
2018-09-24T13:37:42.132Z,13.18
2018-09-24T13:40:15.866Z,13.26
2018-09-24T13:42:49.837Z,13.27
2018-09-24T13:45:23.898Z,13.55
2018-09-24T13:47:57.677Z,13.30
2018-09-24T13:50:31.482Z,13.30
2018-09-24T13:53:05.414Z,13.34
2018-09-24T13:55:39.164Z,13.11
2018-09-24T13:58:13.620Z,12.94
2018-09-24T14:00:47.498Z,13.04
2018-09-24T14:03:21.488Z,12.86
2018-09-24T14:05:55.569Z,12.92
2018-09-24T14:08:29.495Z,12.88
2018-09-24T14:11:03.380Z,12.45
2018-09-24T14:13:37.299Z,12.21
2018-09-24T14:16:11.222Z,12.38
2018-09-24T14:18:45.188Z,12.61
2018-09-24T14:21:19.148Z,12.54
2018-09-24T14:23:52.969Z,12.50
2018-09-24T14:26:26.957Z,12.50
2018-09-24T14:29:00.907Z,12.55
2018-09-24T14:31:34.769Z,12.67
2018-09-24T14:34:08.681Z,12.73
2018-09-24T14:36:42.792Z,12.89
2018-09-24T14:39:16.596Z,12.99
2018-09-24T14:41:50.646Z,13.02
2018-09-24T14:44:24.646Z,13.11
2018-09-24T14:46:58.684Z,13.15
2018-09-24T14:49:32.548Z,13.11
2018-09-24T14:52:06.529Z,12.73
2018-09-24T14:54:40.256Z,12.51
2018-09-24T14:57:14.232Z,12.24
2018-09-24T14:59:48.066Z,12.06
2018-09-24T15:02:21.824Z,12.04
2018-09-24T15:04:55.658Z,12.11
2018-09-24T15:07:29.527Z,12.36
2018-09-24T15:10:03.388Z,12.56
2018-09-24T15:12:37.280Z,12.52
2018-09-24T15:15:11.177Z,12.51
2018-09-24T15:17:45.114Z,12.50
2018-09-24T15:20:19.082Z,12.54
2018-09-24T15:22:52.870Z,12.61
2018-09-24T15:25:26.669Z,12.82
2018-09-24T15:28:00.514Z,12.85
2018-09-24T15:30:34.329Z,12.31
2018-09-24T15:33:08.177Z,12.03
2018-09-24T15:35:41.864Z,11.97
2018-09-24T15:38:15.889Z,12.02
2018-09-24T15:40:49.800Z,12.01
2018-09-24T15:43:23.713Z,11.93
2018-09-24T15:45:57.560Z,11.78
2018-09-24T15:48:31.354Z,11.77
2018-09-24T15:51:05.274Z,11.71
2018-09-24T15:53:39.225Z,11.63
2018-09-24T15:56:13.131Z,11.59
2018-09-24T15:58:47.169Z,11.52
2018-09-24T16:01:20.961Z,11.53
2018-09-24T16:03:54.792Z,11.38
2018-09-24T16:06:28.526Z,11.26
2018-09-24T16:09:02.617Z,11.15
2018-09-24T16:11:36.429Z,11.04
2018-09-24T16:14:10.446Z,10.90
2018-09-24T16:16:51.216Z,10.92
2018-09-24T16:19:25.173Z,10.98
2018-09-24T16:21:59.174Z,10.90
2018-09-24T16:24:33.140Z,10.92
2018-09-24T16:27:07.044Z,10.92
2018-09-24T16:29:41.034Z,10.91
2018-09-24T16:32:14.947Z,10.86
2018-09-24T16:34:48.817Z,10.84
2018-09-24T16:37:22.715Z,10.79
2018-09-24T16:39:56.589Z,10.68
2018-09-24T16:42:30.326Z,10.54
2018-09-24T16:45:04.138Z,10.45
2018-09-24T16:47:38.073Z,10.34
2018-09-24T16:50:12.017Z,10.28
2018-09-24T16:52:45.813Z,10.24
2018-09-24T16:55:19.579Z,10.16
2018-09-24T16:57:53.639Z,10.09
2018-09-24T17:00:27.517Z,9.97
2018-09-24T17:03:01.522Z,9.96
2018-09-24T17:05:35.540Z,9.88
2018-09-24T17:08:09.391Z,9.83
2018-09-24T17:10:43.135Z,9.88
2018-09-24T17:13:17.006Z,9.93
2018-09-24T17:15:50.928Z,9.90
2018-09-24T17:18:24.805Z,9.98
2018-09-24T17:20:58.796Z,9.97
2018-09-24T17:23:32.793Z,9.96
2018-09-24T17:26:06.823Z,9.92
2018-09-24T17:28:40.553Z,9.81
2018-09-24T17:31:14.561Z,9.66
2018-09-24T17:33:48.662Z,9.54
2018-09-24T17:36:22.505Z,9.40
2018-09-24T17:38:56.401Z,9.27
2018-09-24T17:41:30.263Z,9.20
2018-09-24T17:44:04.076Z,9.10
2018-09-24T17:46:37.950Z,9.03
2018-09-24T17:49:11.874Z,9.00
2018-09-24T17:51:45.937Z,8.83
2018-09-24T17:54:19.808Z,8.78
2018-09-24T17:56:53.665Z,8.64
2018-09-24T17:59:27.618Z,8.51
2018-09-24T18:02:01.449Z,8.37
2018-09-24T18:04:35.396Z,8.23
2018-09-24T18:07:09.157Z,8.15
2018-09-24T18:09:43.076Z,8.11
2018-09-24T18:12:16.927Z,8.09
2018-09-24T18:14:50.812Z,8.09
2018-09-24T18:17:24.733Z,8.04
2018-09-24T18:19:58.649Z,7.95
2018-09-24T18:22:32.698Z,7.94
2018-09-24T18:25:06.585Z,7.87
2018-09-24T18:27:40.630Z,7.83
2018-09-24T18:30:14.441Z,7.81
2018-09-24T18:32:48.214Z,7.80
2018-09-24T18:35:22.057Z,7.81
2018-09-24T18:37:55.889Z,7.80
2018-09-24T18:40:29.785Z,7.75
2018-09-24T18:43:03.801Z,7.80
2018-09-24T18:45:37.607Z,7.78
2018-09-24T18:48:11.669Z,7.72
2018-09-24T18:50:45.628Z,7.66
2018-09-24T18:53:19.507Z,7.66
2018-09-24T18:55:53.473Z,7.59
2018-09-24T18:58:27.362Z,7.53
2018-09-24T19:01:01.421Z,7.55
2018-09-24T19:03:35.395Z,7.58
2018-09-24T19:06:09.389Z,7.56
2018-09-24T19:08:43.229Z,7.49
2018-09-24T19:11:27.645Z,7.45
2018-09-24T19:13:50.791Z,7.43
2018-09-24T19:16:24.713Z,7.44
2018-09-24T19:18:58.592Z,7.47
2018-09-24T19:21:32.598Z,7.49
2018-09-24T19:24:06.457Z,7.47
2018-09-24T19:26:40.505Z,7.45
2018-09-24T19:29:14.488Z,7.43
2018-09-24T19:31:48.533Z,7.35
2018-09-24T19:34:22.386Z,7.36
2018-09-24T19:36:56.256Z,7.38
2018-09-24T19:39:30.017Z,7.41
2018-09-24T19:42:03.932Z,7.46
2018-09-24T19:44:37.952Z,7.46
2018-09-24T19:47:12.166Z,7.44
2018-09-24T19:49:46.134Z,7.38
2018-09-24T19:52:19.843Z,7.37
2018-09-24T19:54:53.839Z,7.36
2018-09-24T19:57:27.752Z,7.30
2018-09-24T20:00:01.609Z,7.21
2018-09-24T20:02:35.663Z,7.20
2018-09-24T20:05:09.509Z,7.19
2018-09-24T20:07:43.458Z,7.13
2018-09-24T20:10:17.287Z,7.08
2018-09-24T20:12:51.311Z,6.99
2018-09-24T20:15:25.156Z,6.93
2018-09-24T20:17:59.003Z,6.87
2018-09-24T20:20:32.902Z,6.87
2018-09-24T20:23:06.780Z,6.89
2018-09-24T20:25:40.674Z,6.98
2018-09-24T20:28:14.483Z,7.00
2018-09-24T20:30:48.471Z,6.97
2018-09-24T20:33:22.357Z,6.88
2018-09-24T20:35:56.149Z,6.91
2018-09-24T20:38:30.102Z,6.86
2018-09-24T20:41:03.957Z,6.79
2018-09-24T20:43:37.844Z,6.78
2018-09-24T20:46:11.731Z,6.74
2018-09-24T20:48:45.657Z,6.68
2018-09-24T20:51:19.569Z,6.77
2018-09-24T20:53:53.433Z,6.78
2018-09-24T20:56:27.089Z,6.71
2018-09-24T20:59:00.929Z,6.64
2018-09-24T21:01:34.772Z,6.55
2018-09-24T21:04:08.647Z,6.50
2018-09-24T21:06:42.624Z,6.51
2018-09-24T21:09:16.539Z,6.48
2018-09-24T21:11:50.565Z,6.52
2018-09-24T21:14:24.384Z,6.56
2018-09-24T21:16:58.277Z,6.57
2018-09-24T21:19:32.346Z,6.56
2018-09-24T21:22:06.233Z,6.51
2018-09-24T21:24:40.078Z,6.42
2018-09-24T21:27:13.969Z,6.43
2018-09-24T21:29:47.878Z,6.43
2018-09-24T21:32:21.589Z,6.40
2018-09-24T21:34:55.645Z,6.37
2018-09-24T21:37:29.579Z,6.33
2018-09-24T21:40:03.499Z,6.37
2018-09-24T21:42:37.306Z,6.32
2018-09-24T21:45:11.245Z,6.35
2018-09-24T21:47:45.038Z,6.35
2018-09-24T21:50:18.774Z,6.34
2018-09-24T21:52:52.745Z,6.39
2018-09-24T21:55:26.529Z,6.40
2018-09-24T21:58:00.271Z,6.38
2018-09-24T22:00:34.287Z,6.35
2018-09-24T22:03:08.057Z,6.30
2018-09-24T22:05:41.906Z,6.31
2018-09-24T22:08:15.644Z,6.36
2018-09-24T22:10:49.332Z,6.36
2018-09-24T22:13:23.243Z,6.31
2018-09-24T22:15:57.274Z,6.23
2018-09-24T22:18:31.264Z,6.24
2018-09-24T22:21:05.206Z,6.27
2018-09-24T22:23:38.977Z,6.33
2018-09-24T22:26:12.955Z,6.26
2018-09-24T22:28:46.785Z,6.23
2018-09-24T22:31:20.704Z,6.18
2018-09-24T22:33:54.828Z,6.15
2018-09-24T22:36:28.591Z,6.11
2018-09-24T22:39:02.425Z,6.09
2018-09-24T22:41:36.171Z,5.96
2018-09-24T22:44:10.058Z,6.04
2018-09-24T22:46:44.033Z,6.08
2018-09-24T22:49:18.000Z,6.07
2018-09-24T22:51:51.886Z,6.03
2018-09-24T22:54:25.899Z,6.15
2018-09-24T22:56:59.900Z,6.11
2018-09-24T22:59:33.858Z,6.16
2018-09-24T23:02:07.863Z,6.06
2018-09-24T23:04:41.752Z,5.93
2018-09-24T23:07:15.693Z,5.79
2018-09-24T23:09:49.369Z,5.66
2018-09-24T23:12:23.455Z,5.60
2018-09-24T23:14:57.204Z,5.49
2018-09-24T23:17:31.063Z,5.43
2018-09-24T23:20:05.051Z,5.43
2018-09-24T23:22:39.148Z,5.47
2018-09-24T23:25:13.041Z,5.43
2018-09-24T23:27:46.953Z,5.43
2018-09-24T23:30:20.865Z,5.40
2018-09-24T23:32:54.814Z,5.29
2018-09-24T23:35:28.690Z,5.22
2018-09-24T23:38:02.505Z,5.15
2018-09-24T23:40:36.499Z,5.14
2018-09-24T23:43:10.411Z,5.18
2018-09-24T23:45:44.128Z,5.20
2018-09-24T23:48:18.041Z,5.15
2018-09-24T23:50:51.920Z,5.16
2018-09-24T23:53:25.809Z,5.26
2018-09-24T23:55:59.598Z,5.24
2018-09-24T23:58:33.524Z,5.18
